sensor_id;sensor_type;location;lat;lon;timestamp;P1;durP1;ratioP1;P2;durP2;ratioP2
42260;SDS011;27926;48.062;7.474;2022-07-05T00:01:53;2.00;;;0.98;;
42260;SDS011;27926;48.062;7.474;2022-07-05T00:04:18;2.85;;;1.10;;
42260;SDS011;27926;48.062;7.474;2022-07-05T00:06:42;1.58;;;1.13;;
42260;SDS011;27926;48.062;7.474;2022-07-05T00:09:25;2.03;;;1.00;;
42260;SDS011;27926;48.062;7.474;2022-07-05T00:11:50;2.22;;;0.90;;
42260;SDS011;27926;48.062;7.474;2022-07-05T00:14:14;1.42;;;0.80;;
42260;SDS011;27926;48.062;7.474;2022-07-05T00:16:39;1.15;;;1.00;;
42260;SDS011;27926;48.062;7.474;2022-07-05T00:19:04;1.35;;;0.93;;
42260;SDS011;27926;48.062;7.474;2022-07-05T00:21:28;3.33;;;1.27;;
42260;SDS011;27926;48.062;7.474;2022-07-05T00:23:53;2.03;;;1.00;;
42260;SDS011;27926;48.062;7.474;2022-07-05T00:26:17;3.45;;;1.02;;
42260;SDS011;27926;48.062;7.474;2022-07-05T00:28:42;2.13;;;0.80;;
42260;SDS011;27926;48.062;7.474;2022-07-05T00:31:07;4.65;;;1.50;;
42260;SDS011;27926;48.062;7.474;2022-07-05T00:33:31;2.03;;;1.20;;
42260;SDS011;27926;48.062;7.474;2022-07-05T00:35:56;5.07;;;1.65;;
42260;SDS011;27926;48.062;7.474;2022-07-05T00:38:20;3.90;;;1.15;;
42260;SDS011;27926;48.062;7.474;2022-07-05T00:40:46;2.45;;;1.52;;
42260;SDS011;27926;48.062;7.474;2022-07-05T00:43:11;4.10;;;1.50;;
42260;SDS011;27926;48.062;7.474;2022-07-05T00:45:38;5.15;;;1.95;;
42260;SDS011;27926;48.062;7.474;2022-07-05T00:48:03;1.33;;;1.02;;
42260;SDS011;27926;48.062;7.474;2022-07-05T00:50:28;3.10;;;1.30;;
42260;SDS011;27926;48.062;7.474;2022-07-05T00:52:53;6.53;;;2.03;;
42260;SDS011;27926;48.062;7.474;2022-07-05T00:55:19;3.92;;;1.40;;
42260;SDS011;27926;48.062;7.474;2022-07-05T00:57:44;2.75;;;1.17;;
42260;SDS011;27926;48.062;7.474;2022-07-05T01:00:08;1.65;;;1.10;;
42260;SDS011;27926;48.062;7.474;2022-07-05T01:02:33;4.60;;;1.23;;
42260;SDS011;27926;48.062;7.474;2022-07-05T01:04:58;1.20;;;1.10;;
42260;SDS011;27926;48.062;7.474;2022-07-05T01:07:23;1.27;;;1.10;;
42260;SDS011;27926;48.062;7.474;2022-07-05T01:09:48;1.90;;;1.13;;
42260;SDS011;27926;48.062;7.474;2022-07-05T01:12:13;1.27;;;1.17;;
42260;SDS011;27926;48.062;7.474;2022-07-05T01:14:37;9.60;;;1.17;;
42260;SDS011;27926;48.062;7.474;2022-07-05T01:17:04;1.33;;;0.98;;
42260;SDS011;27926;48.062;7.474;2022-07-05T01:19:29;1.80;;;1.08;;
42260;SDS011;27926;48.062;7.474;2022-07-05T01:21:55;2.20;;;1.30;;
42260;SDS011;27926;48.062;7.474;2022-07-05T01:24:27;1.65;;;1.02;;
42260;SDS011;27926;48.062;7.474;2022-07-05T01:26:52;2.33;;;1.30;;
42260;SDS011;27926;48.062;7.474;2022-07-05T01:29:18;2.42;;;1.40;;
42260;SDS011;27926;48.062;7.474;2022-07-05T01:31:43;5.10;;;1.35;;
42260;SDS011;27926;48.062;7.474;2022-07-05T01:34:08;1.70;;;0.90;;
42260;SDS011;27926;48.062;7.474;2022-07-05T01:36:34;1.20;;;1.10;;
42260;SDS011;27926;48.062;7.474;2022-07-05T01:39:00;5.13;;;2.05;;
42260;SDS011;27926;48.062;7.474;2022-07-05T01:41:29;2.25;;;0.98;;
42260;SDS011;27926;48.062;7.474;2022-07-05T01:43:54;4.05;;;1.48;;
42260;SDS011;27926;48.062;7.474;2022-07-05T01:46:20;2.55;;;1.15;;
42260;SDS011;27926;48.062;7.474;2022-07-05T01:48:46;1.60;;;1.08;;
42260;SDS011;27926;48.062;7.474;2022-07-05T01:51:20;2.42;;;1.27;;
42260;SDS011;27926;48.062;7.474;2022-07-05T01:53:49;3.37;;;1.63;;
42260;SDS011;27926;48.062;7.474;2022-07-05T01:56:17;1.85;;;1.13;;
42260;SDS011;27926;48.062;7.474;2022-07-05T01:58:42;1.90;;;1.35;;
42260;SDS011;27926;48.062;7.474;2022-07-05T02:01:08;1.80;;;1.17;;
42260;SDS011;27926;48.062;7.474;2022-07-05T02:03:36;3.38;;;1.42;;
42260;SDS011;27926;48.062;7.474;2022-07-05T02:06:01;1.83;;;1.42;;
42260;SDS011;27926;48.062;7.474;2022-07-05T02:08:29;6.65;;;1.15;;
42260;SDS011;27926;48.062;7.474;2022-07-05T02:10:54;1.58;;;1.00;;
42260;SDS011;27926;48.062;7.474;2022-07-05T02:13:19;1.30;;;1.20;;
42260;SDS011;27926;48.062;7.474;2022-07-05T02:15:44;2.00;;;1.33;;
42260;SDS011;27926;48.062;7.474;2022-07-05T02:18:09;1.30;;;1.20;;
42260;SDS011;27926;48.062;7.474;2022-07-05T02:20:34;3.45;;;1.48;;
42260;SDS011;27926;48.062;7.474;2022-07-05T02:23:03;4.65;;;1.67;;
42260;SDS011;27926;48.062;7.474;2022-07-05T02:25:27;5.93;;;1.40;;
42260;SDS011;27926;48.062;7.474;2022-07-05T02:27:52;1.30;;;1.13;;
42260;SDS011;27926;48.062;7.474;2022-07-05T02:30:17;3.95;;;1.48;;
42260;SDS011;27926;48.062;7.474;2022-07-05T02:32:42;1.75;;;1.20;;
42260;SDS011;27926;48.062;7.474;2022-07-05T02:35:08;6.35;;;1.23;;
42260;SDS011;27926;48.062;7.474;2022-07-05T02:37:34;1.95;;;1.33;;
42260;SDS011;27926;48.062;7.474;2022-07-05T02:39:59;3.85;;;1.77;;
42260;SDS011;27926;48.062;7.474;2022-07-05T02:42:24;1.67;;;1.00;;
42260;SDS011;27926;48.062;7.474;2022-07-05T02:44:48;2.35;;;1.45;;
42260;SDS011;27926;48.062;7.474;2022-07-05T02:47:13;3.80;;;1.52;;
42260;SDS011;27926;48.062;7.474;2022-07-05T02:49:38;1.80;;;1.17;;
42260;SDS011;27926;48.062;7.474;2022-07-05T02:52:02;4.13;;;1.77;;
42260;SDS011;27926;48.062;7.474;2022-07-05T02:54:27;1.73;;;1.42;;
42260;SDS011;27926;48.062;7.474;2022-07-05T02:56:52;4.53;;;1.75;;
42260;SDS011;27926;48.062;7.474;2022-07-05T02:59:16;2.60;;;1.52;;
42260;SDS011;27926;48.062;7.474;2022-07-05T03:01:41;1.30;;;1.15;;
42260;SDS011;27926;48.062;7.474;2022-07-05T03:04:05;1.45;;;1.35;;
42260;SDS011;27926;48.062;7.474;2022-07-05T03:06:30;1.73;;;1.27;;
42260;SDS011;27926;48.062;7.474;2022-07-05T03:08:55;1.55;;;1.45;;
42260;SDS011;27926;48.062;7.474;2022-07-05T03:11:19;6.05;;;1.40;;
42260;SDS011;27926;48.062;7.474;2022-07-05T03:13:44;7.35;;;1.55;;
42260;SDS011;27926;48.062;7.474;2022-07-05T03:16:11;2.50;;;1.10;;
42260;SDS011;27926;48.062;7.474;2022-07-05T03:18:36;1.40;;;1.30;;
42260;SDS011;27926;48.062;7.474;2022-07-05T03:21:00;1.98;;;1.42;;
42260;SDS011;27926;48.062;7.474;2022-07-05T03:23:25;1.15;;;1.05;;
42260;SDS011;27926;48.062;7.474;2022-07-05T03:25:50;3.70;;;1.63;;
42260;SDS011;27926;48.062;7.474;2022-07-05T03:28:14;2.78;;;1.27;;
42260;SDS011;27926;48.062;7.474;2022-07-05T03:30:39;3.72;;;1.33;;
42260;SDS011;27926;48.062;7.474;2022-07-05T03:33:03;1.38;;;1.10;;
42260;SDS011;27926;48.062;7.474;2022-07-05T03:35:28;6.68;;;1.88;;
42260;SDS011;27926;48.062;7.474;2022-07-05T03:37:53;1.40;;;1.30;;
42260;SDS011;27926;48.062;7.474;2022-07-05T03:40:18;1.80;;;1.05;;
42260;SDS011;27926;48.062;7.474;2022-07-05T03:42:42;3.47;;;1.88;;
42260;SDS011;27926;48.062;7.474;2022-07-05T03:45:07;1.65;;;1.40;;
42260;SDS011;27926;48.062;7.474;2022-07-05T03:47:32;2.10;;;1.33;;
42260;SDS011;27926;48.062;7.474;2022-07-05T03:49:57;2.90;;;1.30;;
42260;SDS011;27926;48.062;7.474;2022-07-05T03:52:21;3.40;;;1.15;;
42260;SDS011;27926;48.062;7.474;2022-07-05T03:54:46;2.30;;;1.38;;
42260;SDS011;27926;48.062;7.474;2022-07-05T03:57:12;1.80;;;1.35;;
42260;SDS011;27926;48.062;7.474;2022-07-05T03:59:37;2.10;;;1.30;;
42260;SDS011;27926;48.062;7.474;2022-07-05T04:02:01;10.10;;;1.45;;
42260;SDS011;27926;48.062;7.474;2022-07-05T04:04:26;2.15;;;1.35;;
42260;SDS011;27926;48.062;7.474;2022-07-05T04:06:51;2.92;;;1.58;;
42260;SDS011;27926;48.062;7.474;2022-07-05T04:09:15;1.30;;;1.20;;
42260;SDS011;27926;48.062;7.474;2022-07-05T04:11:40;2.08;;;1.30;;
42260;SDS011;27926;48.062;7.474;2022-07-05T04:14:04;5.70;;;1.30;;
42260;SDS011;27926;48.062;7.474;2022-07-05T04:16:29;1.92;;;1.60;;
42260;SDS011;27926;48.062;7.474;2022-07-05T04:18:54;2.38;;;1.27;;
42260;SDS011;27926;48.062;7.474;2022-07-05T04:21:18;2.38;;;1.30;;
42260;SDS011;27926;48.062;7.474;2022-07-05T04:23:43;1.73;;;1.33;;
42260;SDS011;27926;48.062;7.474;2022-07-05T04:26:08;2.70;;;1.15;;
42260;SDS011;27926;48.062;7.474;2022-07-05T04:28:32;4.28;;;1.52;;
42260;SDS011;27926;48.062;7.474;2022-07-05T04:30:57;1.27;;;1.10;;
42260;SDS011;27926;48.062;7.474;2022-07-05T04:33:25;4.07;;;1.27;;
42260;SDS011;27926;48.062;7.474;2022-07-05T04:35:49;1.13;;;0.80;;
42260;SDS011;27926;48.062;7.474;2022-07-05T04:38:14;5.25;;;1.10;;
42260;SDS011;27926;48.062;7.474;2022-07-05T04:40:38;3.92;;;1.10;;
42260;SDS011;27926;48.062;7.474;2022-07-05T04:43:04;1.88;;;1.10;;
42260;SDS011;27926;48.062;7.474;2022-07-05T04:45:29;2.92;;;1.20;;
42260;SDS011;27926;48.062;7.474;2022-07-05T04:47:54;1.98;;;0.90;;
42260;SDS011;27926;48.062;7.474;2022-07-05T04:50:18;1.10;;;1.00;;
42260;SDS011;27926;48.062;7.474;2022-07-05T04:52:43;1.67;;;0.40;;
42260;SDS011;27926;48.062;7.474;2022-07-05T04:55:08;0.80;;;0.80;;
42260;SDS011;27926;48.062;7.474;2022-07-05T04:57:39;4.32;;;0.93;;
42260;SDS011;27926;48.062;7.474;2022-07-05T05:00:05;1.35;;;0.80;;
42260;SDS011;27926;48.062;7.474;2022-07-05T05:02:31;2.53;;;0.73;;
42260;SDS011;27926;48.062;7.474;2022-07-05T05:04:55;1.27;;;0.53;;
42260;SDS011;27926;48.062;7.474;2022-07-05T05:07:20;0.60;;;0.60;;
42260;SDS011;27926;48.062;7.474;2022-07-05T05:09:44;1.40;;;0.50;;
42260;SDS011;27926;48.062;7.474;2022-07-05T05:12:09;2.93;;;0.83;;
42260;SDS011;27926;48.062;7.474;2022-07-05T05:14:34;3.87;;;0.80;;
42260;SDS011;27926;48.062;7.474;2022-07-05T05:16:58;2.63;;;0.90;;
42260;SDS011;27926;48.062;7.474;2022-07-05T05:19:23;0.77;;;0.77;;
42260;SDS011;27926;48.062;7.474;2022-07-05T05:21:47;0.67;;;0.67;;
42260;SDS011;27926;48.062;7.474;2022-07-05T05:24:12;2.30;;;1.10;;
42260;SDS011;27926;48.062;7.474;2022-07-05T05:26:37;1.03;;;0.77;;
42260;SDS011;27926;48.062;7.474;2022-07-05T05:29:01;1.60;;;0.70;;
42260;SDS011;27926;48.062;7.474;2022-07-05T05:31:26;2.28;;;1.00;;
42260;SDS011;27926;48.062;7.474;2022-07-05T05:33:51;1.63;;;1.17;;
42260;SDS011;27926;48.062;7.474;2022-07-05T05:36:16;0.87;;;0.80;;
42260;SDS011;27926;48.062;7.474;2022-07-05T05:38:41;0.90;;;0.57;;
42260;SDS011;27926;48.062;7.474;2022-07-05T05:41:05;2.50;;;0.77;;
42260;SDS011;27926;48.062;7.474;2022-07-05T05:43:30;1.13;;;0.60;;
42260;SDS011;27926;48.062;7.474;2022-07-05T05:45:55;1.25;;;0.60;;
42260;SDS011;27926;48.062;7.474;2022-07-05T05:48:19;2.07;;;1.47;;
42260;SDS011;27926;48.062;7.474;2022-07-05T05:50:44;0.73;;;0.73;;
42260;SDS011;27926;48.062;7.474;2022-07-05T05:53:09;1.93;;;0.50;;
42260;SDS011;27926;48.062;7.474;2022-07-05T05:55:34;3.35;;;1.10;;
42260;SDS011;27926;48.062;7.474;2022-07-05T06:00:41;4.03;;;1.02;;
42260;SDS011;27926;48.062;7.474;2022-07-05T06:03:06;4.20;;;0.88;;
42260;SDS011;27926;48.062;7.474;2022-07-05T06:05:31;1.10;;;0.70;;
42260;SDS011;27926;48.062;7.474;2022-07-05T06:07:55;1.10;;;0.70;;
42260;SDS011;27926;48.062;7.474;2022-07-05T06:10:22;0.98;;;0.73;;
42260;SDS011;27926;48.062;7.474;2022-07-05T06:12:54;0.52;;;0.40;;
42260;SDS011;27926;48.062;7.474;2022-07-05T06:15:21;1.42;;;0.55;;
42260;SDS011;27926;48.062;7.474;2022-07-05T06:17:47;1.38;;;0.85;;
42260;SDS011;27926;48.062;7.474;2022-07-05T06:20:15;2.42;;;1.20;;
42260;SDS011;27926;48.062;7.474;2022-07-05T06:22:45;0.80;;;0.70;;
42260;SDS011;27926;48.062;7.474;2022-07-05T06:25:10;1.95;;;0.82;;
42260;SDS011;27926;48.062;7.474;2022-07-05T06:27:41;2.30;;;0.65;;
42260;SDS011;27926;48.062;7.474;2022-07-05T06:30:07;1.20;;;0.75;;
42260;SDS011;27926;48.062;7.474;2022-07-05T06:32:34;0.93;;;0.88;;
42260;SDS011;27926;48.062;7.474;2022-07-05T06:34:58;2.03;;;0.88;;
42260;SDS011;27926;48.062;7.474;2022-07-05T06:37:23;1.17;;;0.63;;
42260;SDS011;27926;48.062;7.474;2022-07-05T06:39:48;1.33;;;0.77;;
42260;SDS011;27926;48.062;7.474;2022-07-05T06:42:12;1.70;;;0.93;;
42260;SDS011;27926;48.062;7.474;2022-07-05T06:44:37;2.50;;;0.83;;
42260;SDS011;27926;48.062;7.474;2022-07-05T06:47:01;0.80;;;0.80;;
42260;SDS011;27926;48.062;7.474;2022-07-05T06:49:26;2.63;;;1.17;;
42260;SDS011;27926;48.062;7.474;2022-07-05T06:51:51;3.97;;;1.03;;
42260;SDS011;27926;48.062;7.474;2022-07-05T06:54:15;6.03;;;0.70;;
42260;SDS011;27926;48.062;7.474;2022-07-05T06:56:40;2.13;;;0.80;;
42260;SDS011;27926;48.062;7.474;2022-07-05T06:59:04;3.10;;;0.60;;
42260;SDS011;27926;48.062;7.474;2022-07-05T07:01:29;1.10;;;0.57;;
42260;SDS011;27926;48.062;7.474;2022-07-05T07:03:54;1.17;;;0.50;;
42260;SDS011;27926;48.062;7.474;2022-07-05T07:06:18;1.33;;;0.43;;
42260;SDS011;27926;48.062;7.474;2022-07-05T07:08:43;0.65;;;0.57;;
42260;SDS011;27926;48.062;7.474;2022-07-05T07:11:27;4.45;;;0.65;;
42260;SDS011;27926;48.062;7.474;2022-07-05T07:13:52;1.93;;;0.60;;
42260;SDS011;27926;48.062;7.474;2022-07-05T07:16:16;0.57;;;0.50;;
42260;SDS011;27926;48.062;7.474;2022-07-05T07:18:41;7.30;;;0.67;;
42260;SDS011;27926;48.062;7.474;2022-07-05T07:21:05;1.10;;;0.60;;
42260;SDS011;27926;48.062;7.474;2022-07-05T07:23:30;2.37;;;0.73;;
42260;SDS011;27926;48.062;7.474;2022-07-05T07:25:55;0.50;;;0.50;;
42260;SDS011;27926;48.062;7.474;2022-07-05T07:28:19;4.33;;;1.10;;
42260;SDS011;27926;48.062;7.474;2022-07-05T07:30:44;2.33;;;0.90;;
42260;SDS011;27926;48.062;7.474;2022-07-05T07:33:08;0.77;;;0.60;;
42260;SDS011;27926;48.062;7.474;2022-07-05T07:35:33;4.17;;;0.80;;
42260;SDS011;27926;48.062;7.474;2022-07-05T07:37:58;0.97;;;0.40;;
42260;SDS011;27926;48.062;7.474;2022-07-05T07:40:22;0.77;;;0.73;;
42260;SDS011;27926;48.062;7.474;2022-07-05T07:42:47;0.80;;;0.63;;
42260;SDS011;27926;48.062;7.474;2022-07-05T07:45:12;3.17;;;0.73;;
42260;SDS011;27926;48.062;7.474;2022-07-05T07:47:36;5.63;;;0.87;;
42260;SDS011;27926;48.062;7.474;2022-07-05T07:50:01;0.83;;;0.60;;
42260;SDS011;27926;48.062;7.474;2022-07-05T07:52:27;0.73;;;0.55;;
42260;SDS011;27926;48.062;7.474;2022-07-05T07:54:54;0.45;;;0.45;;
42260;SDS011;27926;48.062;7.474;2022-07-05T07:57:19;3.47;;;0.70;;
42260;SDS011;27926;48.062;7.474;2022-07-05T07:59:43;1.57;;;0.57;;
42260;SDS011;27926;48.062;7.474;2022-07-05T08:02:08;0.93;;;0.50;;
42260;SDS011;27926;48.062;7.474;2022-07-05T08:04:33;1.43;;;0.90;;
42260;SDS011;27926;48.062;7.474;2022-07-05T08:06:57;0.83;;;0.80;;
42260;SDS011;27926;48.062;7.474;2022-07-05T08:09:22;0.50;;;0.50;;
42260;SDS011;27926;48.062;7.474;2022-07-05T08:11:47;0.97;;;0.70;;
42260;SDS011;27926;48.062;7.474;2022-07-05T08:14:12;1.40;;;0.70;;
42260;SDS011;27926;48.062;7.474;2022-07-05T08:16:38;0.57;;;0.50;;
42260;SDS011;27926;48.062;7.474;2022-07-05T08:19:02;2.67;;;0.70;;
42260;SDS011;27926;48.062;7.474;2022-07-05T08:21:45;3.10;;;0.50;;
42260;SDS011;27926;48.062;7.474;2022-07-05T08:24:11;1.52;;;0.70;;
42260;SDS011;27926;48.062;7.474;2022-07-05T08:26:38;7.40;;;0.98;;
42260;SDS011;27926;48.062;7.474;2022-07-05T08:29:04;3.30;;;0.88;;
42260;SDS011;27926;48.062;7.474;2022-07-05T08:31:32;2.85;;;0.98;;
42260;SDS011;27926;48.062;7.474;2022-07-05T08:33:58;0.60;;;0.50;;
42260;SDS011;27926;48.062;7.474;2022-07-05T08:36:24;0.73;;;0.50;;
42260;SDS011;27926;48.062;7.474;2022-07-05T08:38:49;2.42;;;0.80;;
42260;SDS011;27926;48.062;7.474;2022-07-05T08:41:13;1.87;;;0.60;;
42260;SDS011;27926;48.062;7.474;2022-07-05T08:43:45;1.60;;;0.73;;
42260;SDS011;27926;48.062;7.474;2022-07-05T08:46:11;9.93;;;0.60;;
42260;SDS011;27926;48.062;7.474;2022-07-05T08:48:38;1.13;;;0.60;;
42260;SDS011;27926;48.062;7.474;2022-07-05T08:51:06;0.60;;;0.60;;
42260;SDS011;27926;48.062;7.474;2022-07-05T08:53:41;2.50;;;0.40;;
42260;SDS011;27926;48.062;7.474;2022-07-05T08:56:07;11.47;;;0.47;;
42260;SDS011;27926;48.062;7.474;2022-07-05T08:58:33;3.03;;;0.80;;
42260;SDS011;27926;48.062;7.474;2022-07-05T09:00:58;0.70;;;0.57;;
42260;SDS011;27926;48.062;7.474;2022-07-05T09:03:24;13.65;;;0.82;;
42260;SDS011;27926;48.062;7.474;2022-07-05T09:06:13;1.20;;;0.50;;
42260;SDS011;27926;48.062;7.474;2022-07-05T09:08:41;2.70;;;0.50;;
42260;SDS011;27926;48.062;7.474;2022-07-05T09:11:10;2.07;;;0.70;;
42260;SDS011;27926;48.062;7.474;2022-07-05T09:13:38;3.22;;;0.85;;
42260;SDS011;27926;48.062;7.474;2022-07-05T09:16:05;3.72;;;0.85;;
42260;SDS011;27926;48.062;7.474;2022-07-05T09:21:11;2.30;;;0.82;;
42260;SDS011;27926;48.062;7.474;2022-07-05T09:23:43;1.10;;;0.40;;
42260;SDS011;27926;48.062;7.474;2022-07-05T09:26:09;1.60;;;0.43;;
42260;SDS011;27926;48.062;7.474;2022-07-05T09:28:34;1.80;;;0.50;;
42260;SDS011;27926;48.062;7.474;2022-07-05T09:30:59;1.03;;;0.60;;
42260;SDS011;27926;48.062;7.474;2022-07-05T09:33:24;1.40;;;0.60;;
42260;SDS011;27926;48.062;7.474;2022-07-05T09:35:52;1.20;;;0.77;;
42260;SDS011;27926;48.062;7.474;2022-07-05T09:38:21;1.65;;;0.50;;
42260;SDS011;27926;48.062;7.474;2022-07-05T09:40:47;1.63;;;0.95;;
42260;SDS011;27926;48.062;7.474;2022-07-05T09:43:14;0.70;;;0.47;;
42260;SDS011;27926;48.062;7.474;2022-07-05T09:48:25;8.02;;;1.10;;
42260;SDS011;27926;48.062;7.474;2022-07-05T09:50:50;3.25;;;0.93;;
42260;SDS011;27926;48.062;7.474;2022-07-05T09:53:15;2.87;;;1.33;;
42260;SDS011;27926;48.062;7.474;2022-07-05T09:55:40;3.83;;;1.57;;
42260;SDS011;27926;48.062;7.474;2022-07-05T09:58:07;3.55;;;1.92;;
42260;SDS011;27926;48.062;7.474;2022-07-05T10:00:32;1.97;;;1.23;;
42260;SDS011;27926;48.062;7.474;2022-07-05T10:02:57;3.53;;;1.57;;
42260;SDS011;27926;48.062;7.474;2022-07-05T10:05:26;1.95;;;1.30;;
42260;SDS011;27926;48.062;7.474;2022-07-05T10:07:58;3.13;;;1.73;;
42260;SDS011;27926;48.062;7.474;2022-07-05T10:10:28;1.55;;;0.90;;
42260;SDS011;27926;48.062;7.474;2022-07-05T10:12:55;1.30;;;0.85;;
42260;SDS011;27926;48.062;7.474;2022-07-05T10:15:22;2.83;;;1.38;;
42260;SDS011;27926;48.062;7.474;2022-07-05T10:20:28;8.43;;;0.90;;
42260;SDS011;27926;48.062;7.474;2022-07-05T10:23:11;3.30;;;1.00;;
42260;SDS011;27926;48.062;7.474;2022-07-05T10:25:44;6.55;;;1.52;;
42260;SDS011;27926;48.062;7.474;2022-07-05T10:28:13;6.93;;;1.08;;
42260;SDS011;27926;48.062;7.474;2022-07-05T10:30:39;1.08;;;0.60;;
42260;SDS011;27926;48.062;7.474;2022-07-05T10:33:05;3.38;;;0.75;;
42260;SDS011;27926;48.062;7.474;2022-07-05T10:35:31;4.38;;;1.27;;
42260;SDS011;27926;48.062;7.474;2022-07-05T10:37:56;3.10;;;0.50;;
42260;SDS011;27926;48.062;7.474;2022-07-05T10:40:23;4.07;;;0.93;;
42260;SDS011;27926;48.062;7.474;2022-07-05T10:42:51;2.53;;;0.70;;
42260;SDS011;27926;48.062;7.474;2022-07-05T10:45:23;0.63;;;0.50;;
42260;SDS011;27926;48.062;7.474;2022-07-05T11:06:25;4.28;;;0.75;;
42260;SDS011;27926;48.062;7.474;2022-07-05T11:12:08;1.17;;;0.47;;
42260;SDS011;27926;48.062;7.474;2022-07-05T11:17:11;1.25;;;0.60;;
42260;SDS011;27926;48.062;7.474;2022-07-05T11:20:03;1.30;;;0.70;;
42260;SDS011;27926;48.062;7.474;2022-07-05T11:25:00;2.58;;;0.52;;
42260;SDS011;27926;48.062;7.474;2022-07-05T11:27:25;0.68;;;0.45;;
42260;SDS011;27926;48.062;7.474;2022-07-05T11:29:56;0.83;;;0.30;;
42260;SDS011;27926;48.062;7.474;2022-07-05T11:32:23;1.30;;;0.50;;
42260;SDS011;27926;48.062;7.474;2022-07-05T11:35:12;1.67;;;0.73;;
42260;SDS011;27926;48.062;7.474;2022-07-05T11:37:59;1.10;;;0.82;;
42260;SDS011;27926;48.062;7.474;2022-07-05T11:40:34;0.90;;;0.57;;
42260;SDS011;27926;48.062;7.474;2022-07-05T11:43:00;1.70;;;0.60;;
42260;SDS011;27926;48.062;7.474;2022-07-05T11:45:26;1.33;;;0.68;;
42260;SDS011;27926;48.062;7.474;2022-07-05T11:47:53;1.43;;;0.70;;
42260;SDS011;27926;48.062;7.474;2022-07-05T11:50:31;0.88;;;0.52;;
42260;SDS011;27926;48.062;7.474;2022-07-05T11:52:58;0.80;;;0.60;;
42260;SDS011;27926;48.062;7.474;2022-07-05T11:55:24;2.13;;;0.98;;
42260;SDS011;27926;48.062;7.474;2022-07-05T11:57:52;1.33;;;0.80;;
42260;SDS011;27926;48.062;7.474;2022-07-05T12:00:25;0.40;;;0.40;;
42260;SDS011;27926;48.062;7.474;2022-07-05T12:02:54;1.23;;;0.50;;
42260;SDS011;27926;48.062;7.474;2022-07-05T12:05:19;2.23;;;0.97;;
42260;SDS011;27926;48.062;7.474;2022-07-05T12:07:48;1.27;;;0.80;;
42260;SDS011;27926;48.062;7.474;2022-07-05T12:10:14;1.75;;;0.60;;
42260;SDS011;27926;48.062;7.474;2022-07-05T12:13:03;1.80;;;1.00;;
42260;SDS011;27926;48.062;7.474;2022-07-05T12:15:31;2.35;;;1.00;;
42260;SDS011;27926;48.062;7.474;2022-07-05T12:17:56;1.58;;;0.65;;
42260;SDS011;27926;48.062;7.474;2022-07-05T12:20:28;4.75;;;0.93;;
42260;SDS011;27926;48.062;7.474;2022-07-05T12:22:54;0.95;;;0.47;;
42260;SDS011;27926;48.062;7.474;2022-07-05T12:25:19;1.13;;;0.67;;
42260;SDS011;27926;48.062;7.474;2022-07-05T12:27:46;0.75;;;0.50;;
42260;SDS011;27926;48.062;7.474;2022-07-05T12:30:12;1.67;;;0.50;;
42260;SDS011;27926;48.062;7.474;2022-07-05T12:38:11;0.50;;;0.50;;
42260;SDS011;27926;48.062;7.474;2022-07-05T12:43:23;0.68;;;0.50;;
42260;SDS011;27926;48.062;7.474;2022-07-05T12:46:01;1.27;;;0.70;;
42260;SDS011;27926;48.062;7.474;2022-07-05T12:48:31;1.80;;;0.77;;
42260;SDS011;27926;48.062;7.474;2022-07-05T12:51:00;1.10;;;0.70;;
42260;SDS011;27926;48.062;7.474;2022-07-05T12:53:26;1.02;;;0.50;;
42260;SDS011;27926;48.062;7.474;2022-07-05T12:56:11;0.88;;;0.50;;
42260;SDS011;27926;48.062;7.474;2022-07-05T12:58:58;0.65;;;0.50;;
42260;SDS011;27926;48.062;7.474;2022-07-05T13:01:28;0.50;;;0.50;;
42260;SDS011;27926;48.062;7.474;2022-07-05T13:04:02;3.53;;;0.82;;
42260;SDS011;27926;48.062;7.474;2022-07-05T13:06:41;3.55;;;0.80;;
42260;SDS011;27926;48.062;7.474;2022-07-05T13:09:07;0.85;;;0.63;;
42260;SDS011;27926;48.062;7.474;2022-07-05T13:11:32;3.50;;;0.80;;
42260;SDS011;27926;48.062;7.474;2022-07-05T13:13:56;0.87;;;0.80;;
42260;SDS011;27926;48.062;7.474;2022-07-05T13:16:21;2.50;;;1.03;;
42260;SDS011;27926;48.062;7.474;2022-07-05T13:18:46;3.27;;;1.53;;
42260;SDS011;27926;48.062;7.474;2022-07-05T13:21:10;1.80;;;0.60;;
42260;SDS011;27926;48.062;7.474;2022-07-05T13:23:35;0.73;;;0.63;;
42260;SDS011;27926;48.062;7.474;2022-07-05T13:26:00;1.90;;;0.60;;
42260;SDS011;27926;48.062;7.474;2022-07-05T13:28:24;1.87;;;0.53;;
42260;SDS011;27926;48.062;7.474;2022-07-05T13:30:49;3.87;;;0.80;;
42260;SDS011;27926;48.062;7.474;2022-07-05T13:33:13;5.03;;;0.93;;
42260;SDS011;27926;48.062;7.474;2022-07-05T13:35:38;1.73;;;0.50;;
42260;SDS011;27926;48.062;7.474;2022-07-05T13:38:03;1.13;;;0.70;;
42260;SDS011;27926;48.062;7.474;2022-07-05T13:40:28;0.93;;;0.57;;
42260;SDS011;27926;48.062;7.474;2022-07-05T13:42:52;1.00;;;0.73;;
42260;SDS011;27926;48.062;7.474;2022-07-05T13:45:17;4.73;;;0.90;;
42260;SDS011;27926;48.062;7.474;2022-07-05T13:47:41;3.00;;;0.87;;
42260;SDS011;27926;48.062;7.474;2022-07-05T13:50:06;0.93;;;0.63;;
42260;SDS011;27926;48.062;7.474;2022-07-05T13:52:49;2.80;;;0.77;;
42260;SDS011;27926;48.062;7.474;2022-07-05T13:55:14;1.17;;;0.60;;
42260;SDS011;27926;48.062;7.474;2022-07-05T13:57:38;1.07;;;0.60;;
42260;SDS011;27926;48.062;7.474;2022-07-05T14:00:03;1.30;;;0.60;;
42260;SDS011;27926;48.062;7.474;2022-07-05T14:02:28;4.32;;;0.60;;
42260;SDS011;27926;48.062;7.474;2022-07-05T14:04:53;1.13;;;0.67;;
42260;SDS011;27926;48.062;7.474;2022-07-05T14:07:17;2.90;;;0.80;;
42260;SDS011;27926;48.062;7.474;2022-07-05T14:09:42;3.30;;;0.70;;
42260;SDS011;27926;48.062;7.474;2022-07-05T14:14:32;0.57;;;0.57;;
42260;SDS011;27926;48.062;7.474;2022-07-05T14:16:57;1.37;;;0.80;;
42260;SDS011;27926;48.062;7.474;2022-07-05T14:19:21;1.63;;;0.77;;
42260;SDS011;27926;48.062;7.474;2022-07-05T14:21:46;1.33;;;0.87;;
42260;SDS011;27926;48.062;7.474;2022-07-05T14:24:11;0.40;;;0.40;;
42260;SDS011;27926;48.062;7.474;2022-07-05T14:26:35;0.70;;;0.53;;
42260;SDS011;27926;48.062;7.474;2022-07-05T14:29:01;1.40;;;0.53;;
42260;SDS011;27926;48.062;7.474;2022-07-05T14:31:25;0.98;;;0.73;;
42260;SDS011;27926;48.062;7.474;2022-07-05T14:33:54;0.70;;;0.70;;
42260;SDS011;27926;48.062;7.474;2022-07-05T14:36:19;0.53;;;0.40;;
42260;SDS011;27926;48.062;7.474;2022-07-05T14:38:43;1.00;;;0.50;;
42260;SDS011;27926;48.062;7.474;2022-07-05T14:41:08;3.23;;;0.97;;
42260;SDS011;27926;48.062;7.474;2022-07-05T14:43:33;0.83;;;0.43;;
42260;SDS011;27926;48.062;7.474;2022-07-05T14:45:57;0.40;;;0.40;;
42260;SDS011;27926;48.062;7.474;2022-07-05T14:48:22;2.83;;;0.50;;
42260;SDS011;27926;48.062;7.474;2022-07-05T14:50:46;2.33;;;0.80;;
42260;SDS011;27926;48.062;7.474;2022-07-05T14:53:13;1.85;;;0.50;;
42260;SDS011;27926;48.062;7.474;2022-07-05T14:55:39;3.63;;;0.85;;
42260;SDS011;27926;48.062;7.474;2022-07-05T14:58:03;6.57;;;0.70;;
42260;SDS011;27926;48.062;7.474;2022-07-05T15:00:28;1.80;;;0.73;;
42260;SDS011;27926;48.062;7.474;2022-07-05T15:02:53;1.73;;;0.60;;
42260;SDS011;27926;48.062;7.474;2022-07-05T15:05:17;0.53;;;0.47;;
42260;SDS011;27926;48.062;7.474;2022-07-05T15:07:42;1.37;;;0.70;;
42260;SDS011;27926;48.062;7.474;2022-07-05T15:10:08;1.35;;;0.75;;
42260;SDS011;27926;48.062;7.474;2022-07-05T15:12:32;2.67;;;0.77;;
42260;SDS011;27926;48.062;7.474;2022-07-05T15:14:57;1.40;;;0.77;;
42260;SDS011;27926;48.062;7.474;2022-07-05T15:17:22;6.90;;;0.53;;
42260;SDS011;27926;48.062;7.474;2022-07-05T15:19:48;1.45;;;0.50;;
42260;SDS011;27926;48.062;7.474;2022-07-05T15:22:12;2.17;;;0.50;;
42260;SDS011;27926;48.062;7.474;2022-07-05T15:24:37;0.98;;;0.50;;
42260;SDS011;27926;48.062;7.474;2022-07-05T15:27:02;2.07;;;0.70;;
42260;SDS011;27926;48.062;7.474;2022-07-05T15:29:27;3.33;;;0.88;;
42260;SDS011;27926;48.062;7.474;2022-07-05T15:31:54;2.20;;;0.65;;